sensor_id;sensor_type;location;lat;lon;timestamp;P1;durP1;ratioP1;P2;durP2;ratioP2
16824;SDS011;8529;48.108;-1.706;2022-09-09T00:01:58;10.75;;;2.70;;
16824;SDS011;8529;48.108;-1.706;2022-09-09T00:04:30;6.80;;;2.47;;
16824;SDS011;8529;48.108;-1.706;2022-09-09T00:07:03;14.85;;;4.07;;
16824;SDS011;8529;48.108;-1.706;2022-09-09T00:09:35;8.90;;;2.70;;
16824;SDS011;8529;48.108;-1.706;2022-09-09T00:12:09;10.10;;;2.88;;
16824;SDS011;8529;48.108;-1.706;2022-09-09T00:14:41;8.23;;;3.05;;
16824;SDS011;8529;48.108;-1.706;2022-09-09T00:17:14;8.70;;;3.08;;
16824;SDS011;8529;48.108;-1.706;2022-09-09T00:19:52;9.35;;;3.03;;
16824;SDS011;8529;48.108;-1.706;2022-09-09T00:22:23;10.50;;;3.30;;
16824;SDS011;8529;48.108;-1.706;2022-09-09T00:24:54;8.68;;;2.70;;
16824;SDS011;8529;48.108;-1.706;2022-09-09T00:27:28;11.32;;;2.78;;
16824;SDS011;8529;48.108;-1.706;2022-09-09T00:30:12;12.10;;;2.40;;
16824;SDS011;8529;48.108;-1.706;2022-09-09T00:32:41;11.82;;;2.60;;
16824;SDS011;8529;48.108;-1.706;2022-09-09T00:35:13;10.35;;;2.80;;
16824;SDS011;8529;48.108;-1.706;2022-09-09T00:37:44;11.57;;;2.92;;
16824;SDS011;8529;48.108;-1.706;2022-09-09T00:40:17;12.05;;;2.65;;
16824;SDS011;8529;48.108;-1.706;2022-09-09T00:42:50;12.18;;;3.08;;
16824;SDS011;8529;48.108;-1.706;2022-09-09T00:45:42;9.60;;;2.30;;
16824;SDS011;8529;48.108;-1.706;2022-09-09T00:48:27;9.18;;;3.08;;
16824;SDS011;8529;48.108;-1.706;2022-09-09T00:51:03;10.32;;;2.70;;
16824;SDS011;8529;48.108;-1.706;2022-09-09T00:53:42;11.18;;;2.72;;
16824;SDS011;8529;48.108;-1.706;2022-09-09T00:56:24;9.20;;;2.97;;
16824;SDS011;8529;48.108;-1.706;2022-09-09T00:59:00;11.32;;;2.97;;
16824;SDS011;8529;48.108;-1.706;2022-09-09T01:01:33;11.50;;;2.95;;
16824;SDS011;8529;48.108;-1.706;2022-09-09T01:04:01;9.27;;;2.70;;
16824;SDS011;8529;48.108;-1.706;2022-09-09T01:06:35;10.02;;;2.90;;
16824;SDS011;8529;48.108;-1.706;2022-09-09T01:09:14;8.65;;;2.42;;
16824;SDS011;8529;48.108;-1.706;2022-09-09T01:11:50;10.73;;;3.15;;
16824;SDS011;8529;48.108;-1.706;2022-09-09T01:14:38;8.80;;;2.55;;
16824;SDS011;8529;48.108;-1.706;2022-09-09T01:17:10;6.68;;;2.75;;
16824;SDS011;8529;48.108;-1.706;2022-09-09T01:19:45;10.18;;;3.00;;
16824;SDS011;8529;48.108;-1.706;2022-09-09T01:22:22;8.10;;;2.80;;
16824;SDS011;8529;48.108;-1.706;2022-09-09T01:25:07;11.48;;;2.53;;
16824;SDS011;8529;48.108;-1.706;2022-09-09T01:28:00;5.88;;;2.75;;
16824;SDS011;8529;48.108;-1.706;2022-09-09T01:30:31;7.72;;;2.60;;
16824;SDS011;8529;48.108;-1.706;2022-09-09T01:33:00;8.90;;;2.80;;
16824;SDS011;8529;48.108;-1.706;2022-09-09T01:35:29;11.30;;;2.95;;
16824;SDS011;8529;48.108;-1.706;2022-09-09T01:38:05;14.85;;;3.13;;
16824;SDS011;8529;48.108;-1.706;2022-09-09T01:40:32;10.27;;;2.47;;
16824;SDS011;8529;48.108;-1.706;2022-09-09T01:43:01;7.75;;;2.38;;
16824;SDS011;8529;48.108;-1.706;2022-09-09T01:45:29;8.48;;;2.85;;
16824;SDS011;8529;48.108;-1.706;2022-09-09T01:47:57;12.07;;;2.67;;
16824;SDS011;8529;48.108;-1.706;2022-09-09T01:50:25;6.50;;;2.38;;
16824;SDS011;8529;48.108;-1.706;2022-09-09T01:53:29;7.28;;;2.40;;
16824;SDS011;8529;48.108;-1.706;2022-09-09T01:56:17;10.32;;;2.33;;
16824;SDS011;8529;48.108;-1.706;2022-09-09T01:59:01;10.50;;;3.00;;
16824;SDS011;8529;48.108;-1.706;2022-09-09T02:01:36;9.50;;;2.92;;
16824;SDS011;8529;48.108;-1.706;2022-09-09T02:04:15;10.43;;;2.83;;
16824;SDS011;8529;48.108;-1.706;2022-09-09T02:06:50;7.70;;;2.60;;
16824;SDS011;8529;48.108;-1.706;2022-09-09T02:09:22;5.78;;;2.40;;
16824;SDS011;8529;48.108;-1.706;2022-09-09T02:11:51;10.15;;;2.67;;
16824;SDS011;8529;48.108;-1.706;2022-09-09T02:14:27;6.78;;;2.85;;
16824;SDS011;8529;48.108;-1.706;2022-09-09T02:16:57;11.50;;;2.25;;
16824;SDS011;8529;48.108;-1.706;2022-09-09T02:19:29;7.45;;;2.35;;
16824;SDS011;8529;48.108;-1.706;2022-09-09T02:22:00;7.47;;;2.10;;
16824;SDS011;8529;48.108;-1.706;2022-09-09T02:24:29;9.00;;;2.38;;
16824;SDS011;8529;48.108;-1.706;2022-09-09T02:26:58;6.50;;;2.25;;
16824;SDS011;8529;48.108;-1.706;2022-09-09T02:29:30;8.43;;;2.35;;
16824;SDS011;8529;48.108;-1.706;2022-09-09T02:32:01;7.20;;;2.13;;
16824;SDS011;8529;48.108;-1.706;2022-09-09T02:34:31;10.50;;;2.17;;
16824;SDS011;8529;48.108;-1.706;2022-09-09T02:37:02;6.47;;;2.40;;
16824;SDS011;8529;48.108;-1.706;2022-09-09T02:39:32;9.93;;;3.30;;
16824;SDS011;8529;48.108;-1.706;2022-09-09T02:41:59;6.13;;;2.40;;
16824;SDS011;8529;48.108;-1.706;2022-09-09T02:44:30;8.23;;;2.78;;
16824;SDS011;8529;48.108;-1.706;2022-09-09T02:47:02;4.57;;;1.90;;
16824;SDS011;8529;48.108;-1.706;2022-09-09T02:49:44;5.90;;;1.80;;
16824;SDS011;8529;48.108;-1.706;2022-09-09T02:52:18;7.07;;;2.40;;
16824;SDS011;8529;48.108;-1.706;2022-09-09T02:54:49;6.40;;;2.00;;
16824;SDS011;8529;48.108;-1.706;2022-09-09T02:57:25;9.50;;;2.47;;
16824;SDS011;8529;48.108;-1.706;2022-09-09T02:59:57;5.82;;;2.00;;
16824;SDS011;8529;48.108;-1.706;2022-09-09T03:02:25;4.63;;;1.88;;
16824;SDS011;8529;48.108;-1.706;2022-09-09T03:04:52;7.95;;;2.20;;
16824;SDS011;8529;48.108;-1.706;2022-09-09T03:07:19;5.65;;;1.98;;
16824;SDS011;8529;48.108;-1.706;2022-09-09T03:09:46;4.82;;;1.95;;
16824;SDS011;8529;48.108;-1.706;2022-09-09T03:12:13;10.13;;;2.20;;
16824;SDS011;8529;48.108;-1.706;2022-09-09T03:14:41;9.73;;;2.08;;
16824;SDS011;8529;48.108;-1.706;2022-09-09T03:17:12;8.48;;;2.35;;
16824;SDS011;8529;48.108;-1.706;2022-09-09T03:19:39;7.03;;;1.77;;
16824;SDS011;8529;48.108;-1.706;2022-09-09T03:22:06;5.07;;;2.00;;
16824;SDS011;8529;48.108;-1.706;2022-09-09T03:24:35;8.13;;;2.47;;
16824;SDS011;8529;48.108;-1.706;2022-09-09T03:27:02;10.65;;;2.10;;
16824;SDS011;8529;48.108;-1.706;2022-09-09T03:29:29;9.15;;;2.28;;
16824;SDS011;8529;48.108;-1.706;2022-09-09T03:31:56;5.18;;;1.75;;
16824;SDS011;8529;48.108;-1.706;2022-09-09T03:34:24;9.98;;;1.80;;
16824;SDS011;8529;48.108;-1.706;2022-09-09T03:36:51;6.82;;;1.95;;
16824;SDS011;8529;48.108;-1.706;2022-09-09T03:39:18;12.65;;;2.58;;
16824;SDS011;8529;48.108;-1.706;2022-09-09T03:41:45;8.65;;;3.08;;
16824;SDS011;8529;48.108;-1.706;2022-09-09T03:44:13;6.80;;;2.22;;
16824;SDS011;8529;48.108;-1.706;2022-09-09T03:46:40;8.93;;;1.90;;
16824;SDS011;8529;48.108;-1.706;2022-09-09T03:49:07;5.30;;;2.00;;
16824;SDS011;8529;48.108;-1.706;2022-09-09T03:51:36;10.23;;;2.45;;
16824;SDS011;8529;48.108;-1.706;2022-09-09T03:54:03;6.30;;;2.30;;
16824;SDS011;8529;48.108;-1.706;2022-09-09T03:56:33;6.07;;;2.20;;
16824;SDS011;8529;48.108;-1.706;2022-09-09T03:59:00;6.85;;;1.95;;
16824;SDS011;8529;48.108;-1.706;2022-09-09T04:01:27;7.47;;;2.22;;
16824;SDS011;8529;48.108;-1.706;2022-09-09T04:03:54;6.95;;;1.88;;
16824;SDS011;8529;48.108;-1.706;2022-09-09T04:06:23;5.32;;;1.90;;
16824;SDS011;8529;48.108;-1.706;2022-09-09T04:08:52;6.70;;;2.00;;
16824;SDS011;8529;48.108;-1.706;2022-09-09T04:11:20;7.55;;;2.33;;
16824;SDS011;8529;48.108;-1.706;2022-09-09T04:13:47;6.88;;;1.98;;
16824;SDS011;8529;48.108;-1.706;2022-09-09T04:16:14;11.23;;;2.33;;
16824;SDS011;8529;48.108;-1.706;2022-09-09T04:18:41;5.20;;;1.92;;
16824;SDS011;8529;48.108;-1.706;2022-09-09T04:21:08;5.78;;;2.42;;
16824;SDS011;8529;48.108;-1.706;2022-09-09T04:23:37;11.02;;;2.72;;
16824;SDS011;8529;48.108;-1.706;2022-09-09T04:26:06;5.75;;;2.60;;
16824;SDS011;8529;48.108;-1.706;2022-09-09T04:28:34;9.25;;;2.50;;
16824;SDS011;8529;48.108;-1.706;2022-09-09T04:31:06;9.07;;;2.88;;
16824;SDS011;8529;48.108;-1.706;2022-09-09T04:33:34;11.48;;;2.30;;
16824;SDS011;8529;48.108;-1.706;2022-09-09T04:36:01;7.05;;;2.22;;
16824;SDS011;8529;48.108;-1.706;2022-09-09T04:38:29;5.00;;;2.05;;
16824;SDS011;8529;48.108;-1.706;2022-09-09T04:40:56;11.95;;;2.28;;
16824;SDS011;8529;48.108;-1.706;2022-09-09T04:43:25;8.35;;;2.60;;
16824;SDS011;8529;48.108;-1.706;2022-09-09T04:45:52;6.28;;;1.98;;
16824;SDS011;8529;48.108;-1.706;2022-09-09T04:48:19;6.68;;;2.53;;
16824;SDS011;8529;48.108;-1.706;2022-09-09T04:50:53;6.18;;;2.45;;
16824;SDS011;8529;48.108;-1.706;2022-09-09T04:53:21;4.35;;;1.80;;
16824;SDS011;8529;48.108;-1.706;2022-09-09T04:55:48;8.48;;;2.10;;
16824;SDS011;8529;48.108;-1.706;2022-09-09T04:58:15;7.30;;;1.92;;
16824;SDS011;8529;48.108;-1.706;2022-09-09T05:00:44;9.40;;;2.40;;
16824;SDS011;8529;48.108;-1.706;2022-09-09T05:03:11;8.55;;;2.47;;
16824;SDS011;8529;48.108;-1.706;2022-09-09T05:05:38;16.73;;;3.08;;
16824;SDS011;8529;48.108;-1.706;2022-09-09T05:08:06;8.23;;;2.38;;
16824;SDS011;8529;48.108;-1.706;2022-09-09T05:10:36;5.28;;;2.22;;
16824;SDS011;8529;48.108;-1.706;2022-09-09T05:13:03;8.52;;;2.20;;
16824;SDS011;8529;48.108;-1.706;2022-09-09T05:15:31;9.57;;;2.53;;
16824;SDS011;8529;48.108;-1.706;2022-09-09T05:18:00;4.90;;;2.08;;
16824;SDS011;8529;48.108;-1.706;2022-09-09T05:20:28;5.75;;;2.10;;
16824;SDS011;8529;48.108;-1.706;2022-09-09T05:22:55;5.55;;;2.00;;
16824;SDS011;8529;48.108;-1.706;2022-09-09T05:25:22;11.48;;;2.22;;
16824;SDS011;8529;48.108;-1.706;2022-09-09T05:27:51;7.40;;;2.13;;
16824;SDS011;8529;48.108;-1.706;2022-09-09T05:30:18;6.90;;;2.80;;
16824;SDS011;8529;48.108;-1.706;2022-09-09T05:32:45;12.10;;;2.80;;
16824;SDS011;8529;48.108;-1.706;2022-09-09T05:35:15;5.93;;;2.30;;
16824;SDS011;8529;48.108;-1.706;2022-09-09T05:37:44;6.47;;;2.17;;
16824;SDS011;8529;48.108;-1.706;2022-09-09T05:40:11;5.80;;;2.00;;
16824;SDS011;8529;48.108;-1.706;2022-09-09T05:42:38;6.13;;;2.05;;
16824;SDS011;8529;48.108;-1.706;2022-09-09T05:45:06;8.13;;;2.60;;
16824;SDS011;8529;48.108;-1.706;2022-09-09T05:47:33;5.75;;;2.38;;
16824;SDS011;8529;48.108;-1.706;2022-09-09T05:50:02;7.80;;;2.45;;
16824;SDS011;8529;48.108;-1.706;2022-09-09T05:52:31;7.95;;;2.58;;
16824;SDS011;8529;48.108;-1.706;2022-09-09T05:54:58;8.13;;;2.47;;
16824;SDS011;8529;48.108;-1.706;2022-09-09T05:57:25;10.20;;;2.92;;
16824;SDS011;8529;48.108;-1.706;2022-09-09T05:59:52;12.60;;;2.72;;
16824;SDS011;8529;48.108;-1.706;2022-09-09T06:02:19;7.03;;;2.40;;
16824;SDS011;8529;48.108;-1.706;2022-09-09T06:04:46;15.75;;;2.63;;
16824;SDS011;8529;48.108;-1.706;2022-09-09T06:07:13;8.32;;;2.40;;
16824;SDS011;8529;48.108;-1.706;2022-09-09T06:09:42;7.78;;;2.35;;
16824;SDS011;8529;48.108;-1.706;2022-09-09T06:12:08;10.23;;;2.30;;
16824;SDS011;8529;48.108;-1.706;2022-09-09T06:14:35;6.43;;;2.13;;
16824;SDS011;8529;48.108;-1.706;2022-09-09T06:17:03;9.88;;;2.67;;
16824;SDS011;8529;48.108;-1.706;2022-09-09T06:19:30;12.05;;;2.80;;
16824;SDS011;8529;48.108;-1.706;2022-09-09T06:21:57;8.73;;;3.10;;
16824;SDS011;8529;48.108;-1.706;2022-09-09T06:24:24;7.63;;;2.45;;
16824;SDS011;8529;48.108;-1.706;2022-09-09T06:26:52;7.72;;;2.30;;
16824;SDS011;8529;48.108;-1.706;2022-09-09T06:29:20;4.35;;;2.20;;
16824;SDS011;8529;48.108;-1.706;2022-09-09T06:31:46;5.00;;;2.47;;
16824;SDS011;8529;48.108;-1.706;2022-09-09T06:34:13;11.38;;;2.60;;
16824;SDS011;8529;48.108;-1.706;2022-09-09T06:36:40;10.32;;;2.70;;
16824;SDS011;8529;48.108;-1.706;2022-09-09T06:39:07;8.32;;;2.50;;
16824;SDS011;8529;48.108;-1.706;2022-09-09T06:41:36;8.60;;;2.90;;
16824;SDS011;8529;48.108;-1.706;2022-09-09T06:44:04;11.40;;;3.15;;
16824;SDS011;8529;48.108;-1.706;2022-09-09T06:46:31;10.15;;;2.80;;
16824;SDS011;8529;48.108;-1.706;2022-09-09T06:48:58;6.32;;;2.65;;
16824;SDS011;8529;48.108;-1.706;2022-09-09T06:51:26;8.35;;;2.60;;
16824;SDS011;8529;48.108;-1.706;2022-09-09T06:53:55;9.88;;;2.70;;
16824;SDS011;8529;48.108;-1.706;2022-09-09T06:56:24;9.10;;;2.80;;
16824;SDS011;8529;48.108;-1.706;2022-09-09T06:58:53;7.38;;;2.45;;
16824;SDS011;8529;48.108;-1.706;2022-09-09T07:01:22;9.35;;;2.60;;
16824;SDS011;8529;48.108;-1.706;2022-09-09T07:03:51;11.15;;;2.75;;
16824;SDS011;8529;48.108;-1.706;2022-09-09T07:06:20;8.30;;;2.47;;
16824;SDS011;8529;48.108;-1.706;2022-09-09T07:08:49;8.32;;;2.53;;
16824;SDS011;8529;48.108;-1.706;2022-09-09T07:11:18;10.20;;;2.28;;
16824;SDS011;8529;48.108;-1.706;2022-09-09T07:13:45;10.57;;;2.83;;
16824;SDS011;8529;48.108;-1.706;2022-09-09T07:16:13;7.88;;;2.38;;
16824;SDS011;8529;48.108;-1.706;2022-09-09T07:18:43;8.38;;;2.40;;
16824;SDS011;8529;48.108;-1.706;2022-09-09T07:21:11;8.38;;;2.10;;
16824;SDS011;8529;48.108;-1.706;2022-09-09T07:23:39;14.30;;;3.28;;
16824;SDS011;8529;48.108;-1.706;2022-09-09T07:26:07;7.13;;;2.67;;
16824;SDS011;8529;48.108;-1.706;2022-09-09T07:28:35;5.70;;;2.55;;
16824;SDS011;8529;48.108;-1.706;2022-09-09T07:31:03;7.72;;;2.20;;
16824;SDS011;8529;48.108;-1.706;2022-09-09T07:33:32;6.93;;;2.05;;
16824;SDS011;8529;48.108;-1.706;2022-09-09T07:36:05;4.47;;;2.28;;
16824;SDS011;8529;48.108;-1.706;2022-09-09T07:38:37;10.80;;;2.53;;
16824;SDS011;8529;48.108;-1.706;2022-09-09T07:41:06;8.40;;;2.85;;
16824;SDS011;8529;48.108;-1.706;2022-09-09T07:43:37;7.85;;;2.38;;
16824;SDS011;8529;48.108;-1.706;2022-09-09T07:46:05;6.05;;;2.30;;
16824;SDS011;8529;48.108;-1.706;2022-09-09T07:48:32;7.40;;;2.58;;
16824;SDS011;8529;48.108;-1.706;2022-09-09T07:51:09;7.80;;;2.40;;
16824;SDS011;8529;48.108;-1.706;2022-09-09T07:53:38;4.28;;;2.25;;
16824;SDS011;8529;48.108;-1.706;2022-09-09T07:56:06;9.73;;;2.55;;
16824;SDS011;8529;48.108;-1.706;2022-09-09T07:58:34;6.68;;;2.40;;
16824;SDS011;8529;48.108;-1.706;2022-09-09T08:01:05;10.65;;;3.05;;
16824;SDS011;8529;48.108;-1.706;2022-09-09T08:03:34;5.18;;;2.25;;
16824;SDS011;8529;48.108;-1.706;2022-09-09T08:06:01;7.90;;;2.38;;
16824;SDS011;8529;48.108;-1.706;2022-09-09T08:08:30;6.53;;;2.38;;
16824;SDS011;8529;48.108;-1.706;2022-09-09T08:11:01;8.38;;;2.88;;
16824;SDS011;8529;48.108;-1.706;2022-09-09T08:13:30;15.10;;;4.30;;
16824;SDS011;8529;48.108;-1.706;2022-09-09T08:16:03;8.60;;;3.10;;
16824;SDS011;8529;48.108;-1.706;2022-09-09T08:18:31;8.52;;;3.10;;
16824;SDS011;8529;48.108;-1.706;2022-09-09T08:21:04;9.75;;;3.33;;
16824;SDS011;8529;48.108;-1.706;2022-09-09T08:23:34;9.43;;;2.65;;
16824;SDS011;8529;48.108;-1.706;2022-09-09T08:26:05;11.18;;;2.70;;
16824;SDS011;8529;48.108;-1.706;2022-09-09T08:28:34;7.25;;;2.30;;
16824;SDS011;8529;48.108;-1.706;2022-09-09T08:31:04;7.43;;;2.40;;
16824;SDS011;8529;48.108;-1.706;2022-09-09T08:33:32;7.05;;;2.65;;
16824;SDS011;8529;48.108;-1.706;2022-09-09T08:36:01;6.05;;;2.45;;
16824;SDS011;8529;48.108;-1.706;2022-09-09T08:38:28;6.10;;;2.15;;
16824;SDS011;8529;48.108;-1.706;2022-09-09T08:40:58;8.13;;;2.50;;
16824;SDS011;8529;48.108;-1.706;2022-09-09T08:43:31;6.00;;;2.65;;
16824;SDS011;8529;48.108;-1.706;2022-09-09T08:46:00;5.72;;;2.08;;
16824;SDS011;8529;48.108;-1.706;2022-09-09T08:48:37;6.50;;;2.60;;
16824;SDS011;8529;48.108;-1.706;2022-09-09T08:51:10;7.63;;;2.30;;
16824;SDS011;8529;48.108;-1.706;2022-09-09T08:53:40;12.75;;;2.70;;
16824;SDS011;8529;48.108;-1.706;2022-09-09T08:56:12;9.45;;;2.20;;
16824;SDS011;8529;48.108;-1.706;2022-09-09T08:58:43;9.45;;;2.72;;
16824;SDS011;8529;48.108;-1.706;2022-09-09T09:01:20;5.20;;;2.85;;
16824;SDS011;8529;48.108;-1.706;2022-09-09T09:04:02;8.35;;;2.38;;
16824;SDS011;8529;48.108;-1.706;2022-09-09T09:06:41;6.97;;;2.25;;
16824;SDS011;8529;48.108;-1.706;2022-09-09T09:09:18;10.98;;;2.13;;
16824;SDS011;8529;48.108;-1.706;2022-09-09T09:11:53;7.63;;;2.13;;
16824;SDS011;8529;48.108;-1.706;2022-09-09T09:14:26;5.78;;;2.17;;
16824;SDS011;8529;48.108;-1.706;2022-09-09T09:16:56;10.25;;;2.38;;
16824;SDS011;8529;48.108;-1.706;2022-09-09T09:19:26;5.55;;;1.80;;
16824;SDS011;8529;48.108;-1.706;2022-09-09T09:21:57;8.88;;;2.67;;
16824;SDS011;8529;48.108;-1.706;2022-09-09T09:24:34;5.47;;;1.70;;
16824;SDS011;8529;48.108;-1.706;2022-09-09T09:27:12;4.65;;;1.58;;
16824;SDS011;8529;48.108;-1.706;2022-09-09T09:29:39;8.63;;;1.90;;
16824;SDS011;8529;48.108;-1.706;2022-09-09T09:32:09;9.85;;;2.72;;
16824;SDS011;8529;48.108;-1.706;2022-09-09T09:34:40;6.38;;;1.85;;
16824;SDS011;8529;48.108;-1.706;2022-09-09T09:37:11;4.25;;;1.67;;
16824;SDS011;8529;48.108;-1.706;2022-09-09T09:39:44;5.70;;;1.60;;
16824;SDS011;8529;48.108;-1.706;2022-09-09T09:42:13;7.65;;;2.00;;
16824;SDS011;8529;48.108;-1.706;2022-09-09T09:44:42;5.75;;;2.05;;
16824;SDS011;8529;48.108;-1.706;2022-09-09T09:47:10;7.40;;;2.58;;
16824;SDS011;8529;48.108;-1.706;2022-09-09T09:49:39;5.70;;;2.17;;
16824;SDS011;8529;48.108;-1.706;2022-09-09T09:52:17;3.75;;;1.92;;
16824;SDS011;8529;48.108;-1.706;2022-09-09T09:54:49;5.85;;;1.45;;
16824;SDS011;8529;48.108;-1.706;2022-09-09T09:57:18;8.43;;;2.17;;
16824;SDS011;8529;48.108;-1.706;2022-09-09T09:59:59;6.13;;;1.60;;
16824;SDS011;8529;48.108;-1.706;2022-09-09T10:02:31;4.32;;;1.60;;
16824;SDS011;8529;48.108;-1.706;2022-09-09T10:05:05;4.75;;;1.60;;
16824;SDS011;8529;48.108;-1.706;2022-09-09T10:07:38;4.57;;;1.90;;
16824;SDS011;8529;48.108;-1.706;2022-09-09T10:10:05;5.75;;;2.13;;
16824;SDS011;8529;48.108;-1.706;2022-09-09T10:12:43;7.03;;;2.33;;
16824;SDS011;8529;48.108;-1.706;2022-09-09T10:15:26;7.00;;;2.05;;
16824;SDS011;8529;48.108;-1.706;2022-09-09T10:18:02;7.68;;;1.92;;
16824;SDS011;8529;48.108;-1.706;2022-09-09T10:20:41;3.40;;;2.20;;
16824;SDS011;8529;48.108;-1.706;2022-09-09T10:23:15;5.25;;;1.80;;
16824;SDS011;8529;48.108;-1.706;2022-09-09T10:25:56;5.85;;;1.77;;
16824;SDS011;8529;48.108;-1.706;2022-09-09T10:28:49;5.90;;;2.20;;
16824;SDS011;8529;48.108;-1.706;2022-09-09T10:31:34;5.53;;;2.17;;
16824;SDS011;8529;48.108;-1.706;2022-09-09T10:34:12;4.18;;;1.63;;
16824;SDS011;8529;48.108;-1.706;2022-09-09T10:36:52;5.72;;;2.17;;
16824;SDS011;8529;48.108;-1.706;2022-09-09T10:39:24;4.38;;;2.10;;
16824;SDS011;8529;48.108;-1.706;2022-09-09T10:42:01;7.28;;;2.08;;
16824;SDS011;8529;48.108;-1.706;2022-09-09T10:44:39;4.75;;;2.17;;
16824;SDS011;8529;48.108;-1.706;2022-09-09T10:47:23;3.50;;;1.75;;
16824;SDS011;8529;48.108;-1.706;2022-09-09T10:50:09;4.93;;;1.45;;
16824;SDS011;8529;48.108;-1.706;2022-09-09T10:52:46;5.40;;;1.60;;
16824;SDS011;8529;48.108;-1.706;2022-09-09T10:55:23;2.17;;;1.50;;
16824;SDS011;8529;48.108;-1.706;2022-09-09T10:57:55;3.85;;;1.80;;
16824;SDS011;8529;48.108;-1.706;2022-09-09T11:00:27;6.90;;;1.92;;
16824;SDS011;8529;48.108;-1.706;2022-09-09T11:03:04;3.63;;;1.30;;
16824;SDS011;8529;48.108;-1.706;2022-09-09T11:05:34;3.08;;;1.60;;
16824;SDS011;8529;48.108;-1.706;2022-09-09T11:08:09;4.25;;;1.52;;
16824;SDS011;8529;48.108;-1.706;2022-09-09T11:10:39;4.45;;;1.35;;
16824;SDS011;8529;48.108;-1.706;2022-09-09T11:13:13;3.45;;;1.10;;
16824;SDS011;8529;48.108;-1.706;2022-09-09T11:15:46;5.68;;;1.92;;
16824;SDS011;8529;48.108;-1.706;2022-09-09T11:18:18;5.20;;;1.40;;
16824;SDS011;8529;48.108;-1.706;2022-09-09T11:20:47;2.17;;;1.20;;
16824;SDS011;8529;48.108;-1.706;2022-09-09T11:23:18;5.30;;;1.42;;
16824;SDS011;8529;48.108;-1.706;2022-09-09T11:25:53;6.15;;;1.98;;
16824;SDS011;8529;48.108;-1.706;2022-09-09T11:28:27;3.42;;;1.35;;
16824;SDS011;8529;48.108;-1.706;2022-09-09T11:31:15;7.35;;;1.50;;
16824;SDS011;8529;48.108;-1.706;2022-09-09T11:34:01;5.38;;;1.42;;
16824;SDS011;8529;48.108;-1.706;2022-09-09T11:39:54;6.50;;;1.83;;
16824;SDS011;8529;48.108;-1.706;2022-09-09T11:42:34;2.85;;;1.40;;
16824;SDS011;8529;48.108;-1.706;2022-09-09T11:45:08;3.75;;;1.30;;
16824;SDS011;8529;48.108;-1.706;2022-09-09T11:47:39;2.42;;;1.30;;
16824;SDS011;8529;48.108;-1.706;2022-09-09T11:50:10;3.95;;;1.35;;
16824;SDS011;8529;48.108;-1.706;2022-09-09T11:53:03;6.13;;;1.67;;
16824;SDS011;8529;48.108;-1.706;2022-09-09T11:55:32;3.63;;;0.90;;
16824;SDS011;8529;48.108;-1.706;2022-09-09T11:58:02;3.20;;;1.40;;
16824;SDS011;8529;48.108;-1.706;2022-09-09T12:00:31;4.32;;;1.00;;
16824;SDS011;8529;48.108;-1.706;2022-09-09T12:03:03;4.07;;;1.10;;
16824;SDS011;8529;48.108;-1.706;2022-09-09T12:05:35;1.95;;;1.10;;
16824;SDS011;8529;48.108;-1.706;2022-09-09T12:08:05;5.15;;;0.90;;
16824;SDS011;8529;48.108;-1.706;2022-09-09T12:10:37;3.95;;;0.93;;
16824;SDS011;8529;48.108;-1.706;2022-09-09T12:13:13;2.42;;;0.80;;
16824;SDS011;8529;48.108;-1.706;2022-09-09T12:15:46;1.10;;;0.55;;
16824;SDS011;8529;48.108;-1.706;2022-09-09T12:18:16;3.40;;;0.85;;
16824;SDS011;8529;48.108;-1.706;2022-09-09T12:20:51;5.28;;;1.30;;
16824;SDS011;8529;48.108;-1.706;2022-09-09T12:23:25;1.92;;;1.17;;
16824;SDS011;8529;48.108;-1.706;2022-09-09T12:26:01;3.03;;;1.30;;
16824;SDS011;8529;48.108;-1.706;2022-09-09T12:28:48;1.98;;;1.38;;
16824;SDS011;8529;48.108;-1.706;2022-09-09T12:31:24;3.58;;;1.40;;
16824;SDS011;8529;48.108;-1.706;2022-09-09T12:34:04;4.30;;;1.50;;
16824;SDS011;8529;48.108;-1.706;2022-09-09T12:36:37;6.05;;;1.27;;
16824;SDS011;8529;48.108;-1.706;2022-09-09T12:39:10;3.22;;;1.17;;
16824;SDS011;8529;48.108;-1.706;2022-09-09T12:41:50;2.70;;;1.20;;
16824;SDS011;8529;48.108;-1.706;2022-09-09T12:44:21;5.15;;;1.50;;
16824;SDS011;8529;48.108;-1.706;2022-09-09T12:46:48;4.05;;;1.48;;
16824;SDS011;8529;48.108;-1.706;2022-09-09T12:49:24;6.68;;;1.48;;
16824;SDS011;8529;48.108;-1.706;2022-09-09T12:51:56;4.40;;;1.40;;
16824;SDS011;8529;48.108;-1.706;2022-09-09T12:54:23;4.25;;;1.35;;
16824;SDS011;8529;48.108;-1.706;2022-09-09T12:56:50;3.40;;;1.30;;
16824;SDS011;8529;48.108;-1.706;2022-09-09T12:59:21;3.20;;;1.25;;
16824;SDS011;8529;48.108;-1.706;2022-09-09T13:01:55;3.33;;;1.30;;
16824;SDS011;8529;48.108;-1.706;2022-09-09T13:04:23;2.13;;;1.10;;
16824;SDS011;8529;48.108;-1.706;2022-09-09T13:06:51;3.70;;;1.10;;
16824;SDS011;8529;48.108;-1.706;2022-09-09T13:09:18;2.40;;;1.55;;
16824;SDS011;8529;48.108;-1.706;2022-09-09T13:11:46;5.93;;;1.33;;
16824;SDS011;8529;48.108;-1.706;2022-09-09T13:14:16;3.33;;;1.02;;
16824;SDS011;8529;48.108;-1.706;2022-09-09T13:16:53;2.90;;;0.90;;
16824;SDS011;8529;48.108;-1.706;2022-09-09T13:19:23;4.25;;;1.13;;
16824;SDS011;8529;48.108;-1.706;2022-09-09T13:21:52;4.15;;;1.05;;
16824;SDS011;8529;48.108;-1.706;2022-09-09T13:24:28;6.00;;;1.50;;
16824;SDS011;8529;48.108;-1.706;2022-09-09T13:26:57;4.78;;;1.20;;
16824;SDS011;8529;48.108;-1.706;2022-09-09T13:29:27;5.32;;;1.00;;
16824;SDS011;8529;48.108;-1.706;2022-09-09T13:32:02;1.98;;;1.08;;
16824;SDS011;8529;48.108;-1.706;2022-09-09T13:34:34;4.68;;;1.52;;
16824;SDS011;8529;48.108;-1.706;2022-09-09T13:37:02;6.75;;;1.90;;
16824;SDS011;8529;48.108;-1.706;2022-09-09T13:39:32;5.90;;;1.90;;
16824;SDS011;8529;48.108;-1.706;2022-09-09T13:42:02;3.28;;;1.85;;
16824;SDS011;8529;48.108;-1.706;2022-09-09T13:44:30;5.50;;;1.60;;
16824;SDS011;8529;48.108;-1.706;2022-09-09T13:47:00;3.28;;;1.55;;
16824;SDS011;8529;48.108;-1.706;2022-09-09T13:49:29;4.57;;;2.00;;
16824;SDS011;8529;48.108;-1.706;2022-09-09T13:52:08;5.60;;;1.40;;
16824;SDS011;8529;48.108;-1.706;2022-09-09T13:54:38;4.90;;;1.90;;
16824;SDS011;8529;48.108;-1.706;2022-09-09T13:57:06;3.30;;;1.48;;
16824;SDS011;8529;48.108;-1.706;2022-09-09T13:59:42;2.35;;;1.25;;
16824;SDS011;8529;48.108;-1.706;2022-09-09T14:02:09;2.53;;;1.20;;
16824;SDS011;8529;48.108;-1.706;2022-09-09T14:04:36;2.40;;;1.30;;
16824;SDS011;8529;48.108;-1.706;2022-09-09T14:07:02;1.92;;;1.10;;
16824;SDS011;8529;48.108;-1.706;2022-09-09T14:09:31;3.28;;;1.52;;
16824;SDS011;8529;48.108;-1.706;2022-09-09T14:11:58;4.90;;;1.85;;
16824;SDS011;8529;48.108;-1.706;2022-09-09T14:14:25;1.77;;;1.10;;
16824;SDS011;8529;48.108;-1.706;2022-09-09T14:16:52;2.58;;;1.80;;
16824;SDS011;8529;48.108;-1.706;2022-09-09T14:19:19;3.25;;;1.70;;
16824;SDS011;8529;48.108;-1.706;2022-09-09T14:21:46;3.42;;;1.00;;
16824;SDS011;8529;48.108;-1.706;2022-09-09T14:24:13;3.42;;;1.02;;
16824;SDS011;8529;48.108;-1.706;2022-09-09T14:26:42;1.67;;;1.08;;
16824;SDS011;8529;48.108;-1.706;2022-09-09T14:29:08;2.15;;;1.23;;
16824;SDS011;8529;48.108;-1.706;2022-09-09T14:31:35;3.60;;;1.45;;
16824;SDS011;8529;48.108;-1.706;2022-09-09T14:34:02;3.83;;;1.48;;
16824;SDS011;8529;48.108;-1.706;2022-09-09T14:36:29;3.15;;;1.50;;
16824;SDS011;8529;48.108;-1.706;2022-09-09T14:38:56;3.50;;;1.48;;
16824;SDS011;8529;48.108;-1.706;2022-09-09T14:41:23;2.50;;;1.40;;
16824;SDS011;8529;48.108;-1.706;2022-09-09T14:43:52;1.90;;;0.80;;
16824;SDS011;8529;48.108;-1.706;2022-09-09T14:46:19;2.67;;;0.90;;
16824;SDS011;8529;48.108;-1.706;2022-09-09T14:48:46;4.95;;;1.10;;
16824;SDS011;8529;48.108;-1.706;2022-09-09T14:51:15;2.10;;;0.80;;
16824;SDS011;8529;48.108;-1.706;2022-09-09T14:53:44;1.48;;;0.60;;
16824;SDS011;8529;48.108;-1.706;2022-09-09T14:56:13;1.88;;;0.88;;
16824;SDS011;8529;48.108;-1.706;2022-09-09T14:58:41;3.53;;;0.90;;
16824;SDS011;8529;48.108;-1.706;2022-09-09T15:01:10;1.67;;;1.20;;
16824;SDS011;8529;48.108;-1.706;2022-09-09T15:03:39;3.65;;;1.30;;
16824;SDS011;8529;48.108;-1.706;2022-09-09T15:06:08;2.50;;;1.00;;
16824;SDS011;8529;48.108;-1.706;2022-09-09T15:08:37;3.47;;;0.95;;
16824;SDS011;8529;48.108;-1.706;2022-09-09T15:11:06;3.65;;;1.30;;
16824;SDS011;8529;48.108;-1.706;2022-09-09T15:13:33;3.03;;;1.35;;